Terminal Aerodrome Forecast
Issued by NWS

Home | Current Version | Previous Version | Text Only | Print | Product List | Glossary On
Versions: 1 2 3 4 5 6 7 8 9 10 11 12 13 14
519
FTUS42 KMLB 232324
TAFSUA
TAF
KSUA 232324Z 2400/2424 32005KT P6SM SCT025
     FM240600 32003KT 6SM BR FEW015 BKN020
      TEMPO 2409/2412 3SM BR SCT008
     FM241300 01009KT P6SM SCT025
     FM241400 05010KT P6SM FEW250=

USA.gov is the U.S. government's official web portal to all federal, state and local government web resources and services.